sensor_id;sensor_type;location;lat;lon;timestamp;pressure;altitude;pressure_sealevel;temperature;humidity
12973;BME280;6551;51.056;9.466;2023-12-20T00:01:35;97286.94;;;7.13;88.10
12973;BME280;6551;51.056;9.466;2023-12-20T00:04:02;97308.50;;;7.16;88.35
12973;BME280;6551;51.056;9.466;2023-12-20T00:06:28;97319.91;;;7.17;88.41
12973;BME280;6551;51.056;9.466;2023-12-20T00:08:55;97308.06;;;7.19;88.64
12973;BME280;6551;51.056;9.466;2023-12-20T00:11:20;97303.81;;;7.18;88.44
12973;BME280;6551;51.056;9.466;2023-12-20T00:13:47;97302.81;;;7.13;88.44
12973;BME280;6551;51.056;9.466;2023-12-20T00:16:13;97307.47;;;7.17;88.29
12973;BME280;6551;51.056;9.466;2023-12-20T00:18:38;97297.28;;;7.21;88.80
12973;BME280;6551;51.056;9.466;2023-12-20T00:21:04;97299.34;;;7.05;89.10
12973;BME280;6551;51.056;9.466;2023-12-20T00:23:30;97309.31;;;7.03;89.76
12973;BME280;6551;51.056;9.466;2023-12-20T00:25:56;97306.88;;;7.15;89.07
12973;BME280;6551;51.056;9.466;2023-12-20T00:28:21;97299.97;;;7.07;89.12
12973;BME280;6551;51.056;9.466;2023-12-20T00:30:48;97298.53;;;7.18;89.17
12973;BME280;6551;51.056;9.466;2023-12-20T00:33:14;97303.63;;;7.13;89.14
12973;BME280;6551;51.056;9.466;2023-12-20T00:35:40;97308.06;;;7.19;89.16
12973;BME280;6551;51.056;9.466;2023-12-20T00:38:06;97309.94;;;7.19;88.61
12973;BME280;6551;51.056;9.466;2023-12-20T00:40:32;97299.75;;;7.16;89.28
12973;BME280;6551;51.056;9.466;2023-12-20T00:43:00;97306.88;;;7.22;88.79
12973;BME280;6551;51.056;9.466;2023-12-20T00:45:25;97301.16;;;7.18;89.00
12973;BME280;6551;51.056;9.466;2023-12-20T00:47:53;97293.41;;;7.30;89.04
12973;BME280;6551;51.056;9.466;2023-12-20T00:50:18;97291.59;;;7.17;88.90
12973;BME280;6551;51.056;9.466;2023-12-20T00:52:45;97283.59;;;7.37;88.37
12973;BME280;6551;51.056;9.466;2023-12-20T00:55:11;97292.78;;;7.34;88.33
12973;BME280;6551;51.056;9.466;2023-12-20T00:57:37;97281.81;;;7.24;88.65
12973;BME280;6551;51.056;9.466;2023-12-20T01:00:05;97287.72;;;7.33;88.84
12973;BME280;6551;51.056;9.466;2023-12-20T01:02:31;97289.09;;;7.42;88.33
12973;BME280;6551;51.056;9.466;2023-12-20T01:04:58;97280.94;;;7.43;88.19
12973;BME280;6551;51.056;9.466;2023-12-20T01:07:24;97275.66;;;7.43;88.34
12973;BME280;6551;51.056;9.466;2023-12-20T01:09:51;97268.97;;;7.28;89.28
12973;BME280;6551;51.056;9.466;2023-12-20T01:12:18;97261.00;;;7.41;88.99
12973;BME280;6551;51.056;9.466;2023-12-20T01:14:45;97270.34;;;7.43;88.74
12973;BME280;6551;51.056;9.466;2023-12-20T01:17:11;97272.59;;;7.33;88.80
12973;BME280;6551;51.056;9.466;2023-12-20T01:19:37;97262.00;;;7.33;89.40
12973;BME280;6551;51.056;9.466;2023-12-20T01:22:06;97271.22;;;7.24;89.60
12973;BME280;6551;51.056;9.466;2023-12-20T01:24:32;97277.94;;;7.27;89.98
12973;BME280;6551;51.056;9.466;2023-12-20T01:26:58;97268.34;;;7.32;89.48
12973;BME280;6551;51.056;9.466;2023-12-20T01:29:24;97273.84;;;7.37;89.10
12973;BME280;6551;51.056;9.466;2023-12-20T01:31:51;97266.72;;;7.38;88.93
12973;BME280;6551;51.056;9.466;2023-12-20T01:34:18;97276.13;;;7.27;89.36
12973;BME280;6551;51.056;9.466;2023-12-20T01:36:45;97282.59;;;7.31;89.84
12973;BME280;6551;51.056;9.466;2023-12-20T01:39:12;97270.78;;;7.34;89.81
12973;BME280;6551;51.056;9.466;2023-12-20T01:41:38;97277.50;;;7.36;89.39
12973;BME280;6551;51.056;9.466;2023-12-20T01:44:03;97264.88;;;7.32;89.50
12973;BME280;6551;51.056;9.466;2023-12-20T01:46:31;97261.44;;;7.25;89.57
12973;BME280;6551;51.056;9.466;2023-12-20T01:48:58;97269.78;;;7.35;89.87
12973;BME280;6551;51.056;9.466;2023-12-20T01:51:25;97260.63;;;7.24;89.70
12973;BME280;6551;51.056;9.466;2023-12-20T01:53:56;97264.06;;;7.31;89.78
12973;BME280;6551;51.056;9.466;2023-12-20T01:56:24;97256.13;;;7.25;89.81
12973;BME280;6551;51.056;9.466;2023-12-20T01:58:51;97252.84;;;7.36;89.65
12973;BME280;6551;51.056;9.466;2023-12-20T02:01:17;97243.53;;;7.27;89.62
12973;BME280;6551;51.056;9.466;2023-12-20T02:03:45;97259.41;;;7.20;90.37
12973;BME280;6551;51.056;9.466;2023-12-20T02:06:13;97249.41;;;7.35;90.27
12973;BME280;6551;51.056;9.466;2023-12-20T02:08:39;97256.75;;;7.27;89.83
12973;BME280;6551;51.056;9.466;2023-12-20T02:11:04;97265.06;;;7.30;90.00
12973;BME280;6551;51.056;9.466;2023-12-20T02:13:31;97257.53;;;7.34;89.99
12973;BME280;6551;51.056;9.466;2023-12-20T02:15:59;97255.50;;;7.36;90.14
12973;BME280;6551;51.056;9.466;2023-12-20T02:18:26;97245.53;;;7.38;89.78
12973;BME280;6551;51.056;9.466;2023-12-20T02:20:54;97257.72;;;7.39;89.85
12973;BME280;6551;51.056;9.466;2023-12-20T02:23:20;97250.63;;;7.33;89.95
12973;BME280;6551;51.056;9.466;2023-12-20T02:25:46;97254.88;;;7.34;90.27
12973;BME280;6551;51.056;9.466;2023-12-20T02:28:12;97252.44;;;7.39;89.82
12973;BME280;6551;51.056;9.466;2023-12-20T02:30:38;97239.63;;;7.29;89.80
12973;BME280;6551;51.056;9.466;2023-12-20T02:33:08;97250.81;;;7.31;90.42
12973;BME280;6551;51.056;9.466;2023-12-20T02:35:36;97258.59;;;7.33;90.62
12973;BME280;6551;51.056;9.466;2023-12-20T02:38:01;97256.53;;;7.35;90.38
12973;BME280;6551;51.056;9.466;2023-12-20T02:40:27;97257.75;;;7.32;89.75
12973;BME280;6551;51.056;9.466;2023-12-20T02:42:54;97253.84;;;7.41;89.92
12973;BME280;6551;51.056;9.466;2023-12-20T02:45:19;97250.81;;;7.38;89.69
12973;BME280;6551;51.056;9.466;2023-12-20T02:47:45;97260.94;;;7.54;89.28
12973;BME280;6551;51.056;9.466;2023-12-20T02:50:11;97264.78;;;7.64;88.67
12973;BME280;6551;51.056;9.466;2023-12-20T02:52:38;97265.94;;;7.75;88.36
12973;BME280;6551;51.056;9.466;2023-12-20T02:55:04;97268.81;;;7.80;87.83
12973;BME280;6551;51.056;9.466;2023-12-20T02:57:30;97266.81;;;7.62;88.02
12973;BME280;6551;51.056;9.466;2023-12-20T02:59:55;97282.81;;;7.94;87.58
12973;BME280;6551;51.056;9.466;2023-12-20T03:02:22;97277.09;;;7.90;87.07
12973;BME280;6551;51.056;9.466;2023-12-20T03:04:49;97288.44;;;8.10;87.03
12973;BME280;6551;51.056;9.466;2023-12-20T03:07:15;97280.28;;;8.05;87.05
12973;BME280;6551;51.056;9.466;2023-12-20T03:09:41;97277.53;;;7.81;87.30
12973;BME280;6551;51.056;9.466;2023-12-20T03:12:07;97285.22;;;8.02;87.27
12973;BME280;6551;51.056;9.466;2023-12-20T03:14:32;97291.94;;;8.04;86.12
12973;BME280;6551;51.056;9.466;2023-12-20T03:16:59;97277.94;;;7.84;87.04
12973;BME280;6551;51.056;9.466;2023-12-20T03:19:25;97297.31;;;8.22;86.41
12973;BME280;6551;51.056;9.466;2023-12-20T03:21:50;97289.44;;;8.09;86.01
12973;BME280;6551;51.056;9.466;2023-12-20T03:24:18;97282.84;;;7.81;86.81
12973;BME280;6551;51.056;9.466;2023-12-20T03:26:45;97284.84;;;7.92;87.00
12973;BME280;6551;51.056;9.466;2023-12-20T03:29:11;97289.56;;;7.83;87.61
12973;BME280;6551;51.056;9.466;2023-12-20T03:31:36;97277.38;;;7.76;87.64
12973;BME280;6551;51.056;9.466;2023-12-20T03:34:02;97290.38;;;7.84;87.42
12973;BME280;6551;51.056;9.466;2023-12-20T03:36:29;97290.56;;;7.89;87.48
12973;BME280;6551;51.056;9.466;2023-12-20T03:38:56;97292.41;;;7.88;87.65
12973;BME280;6551;51.056;9.466;2023-12-20T03:41:22;97290.56;;;7.89;87.18
12973;BME280;6551;51.056;9.466;2023-12-20T03:43:49;97286.47;;;7.93;87.17
12973;BME280;6551;51.056;9.466;2023-12-20T03:46:14;97290.78;;;7.87;87.55
12973;BME280;6551;51.056;9.466;2023-12-20T03:48:40;97285.72;;;7.73;88.42
12973;BME280;6551;51.056;9.466;2023-12-20T03:51:06;97279.94;;;7.95;87.60
12973;BME280;6551;51.056;9.466;2023-12-20T03:53:31;97286.78;;;7.72;88.16
12973;BME280;6551;51.056;9.466;2023-12-20T03:55:57;97287.16;;;7.75;87.94
12973;BME280;6551;51.056;9.466;2023-12-20T03:58:24;97286.91;;;7.83;88.24
12973;BME280;6551;51.056;9.466;2023-12-20T04:00:51;97287.53;;;7.85;87.90
12973;BME280;6551;51.056;9.466;2023-12-20T04:03:19;97292.59;;;7.87;88.19
12973;BME280;6551;51.056;9.466;2023-12-20T04:05:46;97301.03;;;7.77;88.26
12973;BME280;6551;51.056;9.466;2023-12-20T04:08:12;97294.03;;;7.89;88.41
12973;BME280;6551;51.056;9.466;2023-12-20T04:10:38;97301.53;;;7.99;87.92
12973;BME280;6551;51.056;9.466;2023-12-20T04:13:04;97295.66;;;7.97;87.70
12973;BME280;6551;51.056;9.466;2023-12-20T04:15:30;97294.91;;;7.70;88.12
12973;BME280;6551;51.056;9.466;2023-12-20T04:17:55;97295.16;;;7.62;88.70
12973;BME280;6551;51.056;9.466;2023-12-20T04:20:21;97299.16;;;7.84;88.53
12973;BME280;6551;51.056;9.466;2023-12-20T04:22:48;97305.69;;;7.82;88.66
12973;BME280;6551;51.056;9.466;2023-12-20T04:25:15;97306.31;;;7.77;88.28
12973;BME280;6551;51.056;9.466;2023-12-20T04:27:41;97302.50;;;7.53;88.34
12973;BME280;6551;51.056;9.466;2023-12-20T04:30:07;97296.84;;;7.37;88.27
12973;BME280;6551;51.056;9.466;2023-12-20T04:32:33;97286.25;;;7.30;88.25
12973;BME280;6551;51.056;9.466;2023-12-20T04:35:00;97279.59;;;7.21;88.11
12973;BME280;6551;51.056;9.466;2023-12-20T04:37:27;97287.72;;;7.26;87.31
12973;BME280;6551;51.056;9.466;2023-12-20T04:39:53;97284.69;;;7.16;86.64
12973;BME280;6551;51.056;9.466;2023-12-20T04:42:20;97276.72;;;7.23;86.17
12973;BME280;6551;51.056;9.466;2023-12-20T04:44:47;97277.13;;;7.26;84.41
12973;BME280;6551;51.056;9.466;2023-12-20T04:47:12;97279.34;;;7.23;83.70
12973;BME280;6551;51.056;9.466;2023-12-20T04:49:38;97274.28;;;7.21;83.17
12973;BME280;6551;51.056;9.466;2023-12-20T04:52:04;97279.53;;;7.28;82.74
12973;BME280;6551;51.056;9.466;2023-12-20T04:54:32;97295.44;;;7.28;82.48
12973;BME280;6551;51.056;9.466;2023-12-20T04:56:59;97300.13;;;7.32;82.55
12973;BME280;6551;51.056;9.466;2023-12-20T04:59:25;97302.38;;;7.35;81.98
12973;BME280;6551;51.056;9.466;2023-12-20T05:01:52;97312.75;;;7.37;82.16
12973;BME280;6551;51.056;9.466;2023-12-20T05:04:19;97310.72;;;7.19;82.86
12973;BME280;6551;51.056;9.466;2023-12-20T05:06:45;97316.03;;;7.06;82.49
12973;BME280;6551;51.056;9.466;2023-12-20T05:09:12;97316.66;;;7.15;82.03
12973;BME280;6551;51.056;9.466;2023-12-20T05:11:39;97314.44;;;7.05;79.92
12973;BME280;6551;51.056;9.466;2023-12-20T05:14:05;97317.25;;;7.17;77.91
12973;BME280;6551;51.056;9.466;2023-12-20T05:16:30;97307.28;;;7.12;77.23
12973;BME280;6551;51.056;9.466;2023-12-20T05:18:57;97306.06;;;7.21;76.20
12973;BME280;6551;51.056;9.466;2023-12-20T05:21:26;97302.38;;;7.35;75.64
12973;BME280;6551;51.056;9.466;2023-12-20T05:23:53;97310.53;;;7.21;75.92
12973;BME280;6551;51.056;9.466;2023-12-20T05:26:18;97308.94;;;7.13;76.60
12973;BME280;6551;51.056;9.466;2023-12-20T05:28:44;97305.03;;;7.22;77.11
12973;BME280;6551;51.056;9.466;2023-12-20T05:31:11;97305.63;;;7.31;77.71
12973;BME280;6551;51.056;9.466;2023-12-20T05:33:36;97308.28;;;7.18;77.07
12973;BME280;6551;51.056;9.466;2023-12-20T05:36:03;97316.66;;;7.21;77.39
12973;BME280;6551;51.056;9.466;2023-12-20T05:38:29;97315.22;;;7.19;76.98
12973;BME280;6551;51.056;9.466;2023-12-20T05:40:55;97315.84;;;7.07;77.14
12973;BME280;6551;51.056;9.466;2023-12-20T05:43:22;97321.09;;;7.40;76.43
12973;BME280;6551;51.056;9.466;2023-12-20T05:45:49;97312.75;;;7.43;76.33
12973;BME280;6551;51.056;9.466;2023-12-20T05:48:14;97314.97;;;7.46;75.75
12973;BME280;6551;51.056;9.466;2023-12-20T05:50:40;97306.47;;;7.18;75.87
12973;BME280;6551;51.056;9.466;2023-12-20T05:53:06;97310.34;;;7.09;76.12
12973;BME280;6551;51.056;9.466;2023-12-20T05:55:31;97314.44;;;7.05;76.82
12973;BME280;6551;51.056;9.466;2023-12-20T05:57:57;97315.44;;;6.91;76.79
12973;BME280;6551;51.056;9.466;2023-12-20T06:00:23;97319.72;;;6.85;77.61
12973;BME280;6551;51.056;9.466;2023-12-20T06:02:49;97316.44;;;6.83;77.28
12973;BME280;6551;51.056;9.466;2023-12-20T06:05:15;97323.38;;;6.65;77.78
12973;BME280;6551;51.056;9.466;2023-12-20T06:07:41;97322.75;;;6.69;77.79
12973;BME280;6551;51.056;9.466;2023-12-20T06:10:07;97329.09;;;6.88;78.07
12973;BME280;6551;51.056;9.466;2023-12-20T06:12:33;97334.34;;;6.62;78.27
12973;BME280;6551;51.056;9.466;2023-12-20T06:15:01;97332.13;;;6.72;78.26
12973;BME280;6551;51.056;9.466;2023-12-20T06:17:27;97333.16;;;6.71;78.55
12973;BME280;6551;51.056;9.466;2023-12-20T06:19:57;97346.53;;;6.56;79.80
12973;BME280;6551;51.056;9.466;2023-12-20T06:22:24;97339.84;;;6.60;80.10
12973;BME280;6551;51.056;9.466;2023-12-20T06:24:50;97337.41;;;6.52;80.33
12973;BME280;6551;51.056;9.466;2023-12-20T06:27:16;97342.50;;;6.60;80.46
12973;BME280;6551;51.056;9.466;2023-12-20T06:29:42;97338.00;;;6.54;80.46
12973;BME280;6551;51.056;9.466;2023-12-20T06:32:10;97338.03;;;6.61;80.75
12973;BME280;6551;51.056;9.466;2023-12-20T06:34:36;97341.25;;;6.69;80.86
12973;BME280;6551;51.056;9.466;2023-12-20T06:37:03;97335.19;;;6.88;80.46
12973;BME280;6551;51.056;9.466;2023-12-20T06:39:28;97338.63;;;6.76;81.55
12973;BME280;6551;51.056;9.466;2023-12-20T06:41:57;97338.44;;;6.84;81.56
12973;BME280;6551;51.056;9.466;2023-12-20T06:44:24;97338.63;;;6.89;81.17
12973;BME280;6551;51.056;9.466;2023-12-20T06:46:49;97324.63;;;6.88;81.83
12973;BME280;6551;51.056;9.466;2023-12-20T06:49:15;97329.28;;;6.93;81.69
12973;BME280;6551;51.056;9.466;2023-12-20T06:51:41;97318.50;;;6.88;81.31
12973;BME280;6551;51.056;9.466;2023-12-20T06:54:06;97328.69;;;6.91;81.02
12973;BME280;6551;51.056;9.466;2023-12-20T06:56:32;97327.44;;;6.80;80.75
12973;BME280;6551;51.056;9.466;2023-12-20T06:59:00;97321.56;;;6.72;80.89
12973;BME280;6551;51.056;9.466;2023-12-20T07:01:26;97323.38;;;6.78;81.56
12973;BME280;6551;51.056;9.466;2023-12-20T07:03:52;97318.09;;;6.71;81.46
12973;BME280;6551;51.056;9.466;2023-12-20T07:06:18;97315.84;;;6.55;82.27
12973;BME280;6551;51.056;9.466;2023-12-20T07:08:44;97317.66;;;6.48;82.65
12973;BME280;6551;51.056;9.466;2023-12-20T07:11:10;97324.56;;;6.42;82.75
12973;BME280;6551;51.056;9.466;2023-12-20T07:13:36;97326.81;;;6.45;82.95
12973;BME280;6551;51.056;9.466;2023-12-20T07:16:06;97333.91;;;6.32;83.14
12973;BME280;6551;51.056;9.466;2023-12-20T07:18:32;97322.31;;;6.39;82.95
12973;BME280;6551;51.056;9.466;2023-12-20T07:20:57;97332.91;;;6.46;82.81
12973;BME280;6551;51.056;9.466;2023-12-20T07:23:24;97327.59;;;6.39;82.71
12973;BME280;6551;51.056;9.466;2023-12-20T07:25:51;97326.56;;;6.34;82.95
12973;BME280;6551;51.056;9.466;2023-12-20T07:28:18;97336.38;;;6.46;83.09
12973;BME280;6551;51.056;9.466;2023-12-20T07:30:44;97336.31;;;6.33;83.71
12973;BME280;6551;51.056;9.466;2023-12-20T07:33:10;97342.88;;;6.44;83.53
12973;BME280;6551;51.056;9.466;2023-12-20T07:35:38;97361.41;;;6.44;83.56
12973;BME280;6551;51.056;9.466;2023-12-20T07:38:04;97353.22;;;6.39;83.80
12973;BME280;6551;51.056;9.466;2023-12-20T07:40:31;97356.44;;;6.28;83.46
12973;BME280;6551;51.056;9.466;2023-12-20T07:42:59;97358.69;;;6.31;83.84
12973;BME280;6551;51.056;9.466;2023-12-20T07:45:25;97339.19;;;6.45;83.46
12973;BME280;6551;51.056;9.466;2023-12-20T07:47:51;97338.56;;;6.36;83.13
12973;BME280;6551;51.056;9.466;2023-12-20T07:50:18;97352.03;;;6.48;83.51
12973;BME280;6551;51.056;9.466;2023-12-20T07:52:45;97360.56;;;6.43;83.27
12973;BME280;6551;51.056;9.466;2023-12-20T07:55:10;97358.75;;;6.44;82.45
12973;BME280;6551;51.056;9.466;2023-12-20T07:57:36;97364.00;;;6.37;83.21
12973;BME280;6551;51.056;9.466;2023-12-20T08:00:02;97375.41;;;6.44;82.61
12973;BME280;6551;51.056;9.466;2023-12-20T08:02:30;97363.63;;;6.54;82.34
12973;BME280;6551;51.056;9.466;2023-12-20T08:04:57;97368.09;;;6.53;82.38
12973;BME280;6551;51.056;9.466;2023-12-20T08:07:24;97370.16;;;6.51;82.57
12973;BME280;6551;51.056;9.466;2023-12-20T08:09:50;97367.53;;;6.58;82.93
12973;BME280;6551;51.056;9.466;2023-12-20T08:12:19;97370.78;;;6.60;82.73
12973;BME280;6551;51.056;9.466;2023-12-20T08:14:46;97376.47;;;6.57;82.63
12973;BME280;6551;51.056;9.466;2023-12-20T08:17:12;97381.09;;;6.41;83.60
12973;BME280;6551;51.056;9.466;2023-12-20T08:19:38;97371.97;;;6.51;82.88
12973;BME280;6551;51.056;9.466;2023-12-20T08:22:05;97364.84;;;6.51;82.56
12973;BME280;6551;51.056;9.466;2023-12-20T08:24:32;97349.34;;;6.41;82.36
12973;BME280;6551;51.056;9.466;2023-12-20T08:26:59;97353.28;;;6.52;83.19
12973;BME280;6551;51.056;9.466;2023-12-20T08:29:24;97357.94;;;6.50;82.73
12973;BME280;6551;51.056;9.466;2023-12-20T08:31:55;97358.16;;;6.55;82.79
12973;BME280;6551;51.056;9.466;2023-12-20T08:34:22;97359.56;;;6.51;82.34
12973;BME280;6551;51.056;9.466;2023-12-20T08:36:50;97363.63;;;6.40;82.60
12973;BME280;6551;51.056;9.466;2023-12-20T08:39:18;97369.91;;;6.39;83.09
12973;BME280;6551;51.056;9.466;2023-12-20T08:41:45;97371.97;;;6.51;82.68
12973;BME280;6551;51.056;9.466;2023-12-20T08:44:11;97358.16;;;6.62;82.28
12973;BME280;6551;51.056;9.466;2023-12-20T08:46:37;97350.03;;;6.70;82.44
12973;BME280;6551;51.056;9.466;2023-12-20T08:49:03;97363.06;;;6.84;81.58
12973;BME280;6551;51.056;9.466;2023-12-20T08:51:29;97361.44;;;7.29;80.44
12973;BME280;6551;51.056;9.466;2023-12-20T08:53:55;97355.75;;;7.32;79.55
12973;BME280;6551;51.056;9.466;2023-12-20T08:56:21;97334.78;;;7.04;80.37
12973;BME280;6551;51.056;9.466;2023-12-20T08:58:47;97340.88;;;7.18;80.29
12973;BME280;6551;51.056;9.466;2023-12-20T09:01:14;97344.13;;;7.20;80.63
12973;BME280;6551;51.056;9.466;2023-12-20T09:03:41;97350.81;;;7.49;80.13
12973;BME280;6551;51.056;9.466;2023-12-20T09:06:08;97352.84;;;7.53;78.79
12973;BME280;6551;51.056;9.466;2023-12-20T09:08:34;97345.31;;;7.50;79.23
12973;BME280;6551;51.056;9.466;2023-12-20T09:11:00;97358.38;;;7.52;79.03
12973;BME280;6551;51.056;9.466;2023-12-20T09:13:26;97356.13;;;7.42;79.42
12973;BME280;6551;51.056;9.466;2023-12-20T09:15:55;97351.25;;;7.33;80.27
12973;BME280;6551;51.056;9.466;2023-12-20T09:18:21;97363.28;;;7.22;81.24
12973;BME280;6551;51.056;9.466;2023-12-20T09:20:47;97356.97;;;7.10;82.05
12973;BME280;6551;51.056;9.466;2023-12-20T09:23:13;97366.53;;;6.98;82.44
12973;BME280;6551;51.056;9.466;2023-12-20T09:25:38;97348.81;;;6.92;83.12
12973;BME280;6551;51.056;9.466;2023-12-20T09:28:04;97362.88;;;6.92;83.63
12973;BME280;6551;51.056;9.466;2023-12-20T09:30:30;97365.31;;;7.00;83.40
12973;BME280;6551;51.056;9.466;2023-12-20T09:32:57;97366.56;;;7.04;83.54
12973;BME280;6551;51.056;9.466;2023-12-20T09:35:23;97366.53;;;6.98;83.31
12973;BME280;6551;51.056;9.466;2023-12-20T09:37:49;97363.28;;;7.09;83.27
12973;BME280;6551;51.056;9.466;2023-12-20T09:40:18;97363.50;;;7.01;83.10
12973;BME280;6551;51.056;9.466;2023-12-20T09:42:51;97342.91;;;7.03;83.65
12973;BME280;6551;51.056;9.466;2023-12-20T09:45:21;97339.88;;;6.99;82.98
12973;BME280;6551;51.056;9.466;2023-12-20T09:47:52;97356.34;;;7.08;83.66
12973;BME280;6551;51.056;9.466;2023-12-20T09:50:20;97344.13;;;7.14;82.62
12973;BME280;6551;51.056;9.466;2023-12-20T09:52:51;97345.97;;;7.13;82.24
12973;BME280;6551;51.056;9.466;2023-12-20T09:55:20;97348.22;;;7.16;82.02
12973;BME280;6551;51.056;9.466;2023-12-20T09:57:47;97358.41;;;7.13;82.00
12973;BME280;6551;51.056;9.466;2023-12-20T10:00:15;97339.88;;;7.06;82.82
12973;BME280;6551;51.056;9.466;2023-12-20T10:03:00;97349.84;;;7.17;82.60
12973;BME280;6551;51.056;9.466;2023-12-20T10:05:31;97330.47;;;7.17;82.44
12973;BME280;6551;51.056;9.466;2023-12-20T10:07:58;97327.44;;;7.13;82.35
12973;BME280;6551;51.056;9.466;2023-12-20T10:10:25;97338.44;;;7.03;83.33
12973;BME280;6551;51.056;9.466;2023-12-20T10:13:05;97344.13;;;7.27;82.95
12973;BME280;6551;51.056;9.466;2023-12-20T10:15:36;97337.41;;;7.37;82.39
12973;BME280;6551;51.056;9.466;2023-12-20T10:18:03;97335.56;;;7.38;82.71
12973;BME280;6551;51.056;9.466;2023-12-20T10:20:30;97336.38;;;7.32;82.85
12973;BME280;6551;51.056;9.466;2023-12-20T10:23:00;97309.09;;;7.25;82.37
12973;BME280;6551;51.056;9.466;2023-12-20T10:25:27;97296.09;;;7.10;83.30
12973;BME280;6551;51.056;9.466;2023-12-20T10:28:13;97337.81;;;7.28;82.93
12973;BME280;6551;51.056;9.466;2023-12-20T10:30:41;97334.75;;;7.11;83.86
12973;BME280;6551;51.056;9.466;2023-12-20T10:33:07;97328.84;;;7.22;83.53
12973;BME280;6551;51.056;9.466;2023-12-20T10:35:37;97329.47;;;7.24;84.02
12973;BME280;6551;51.056;9.466;2023-12-20T10:38:06;97318.66;;;7.26;83.56
12973;BME280;6551;51.056;9.466;2023-12-20T10:40:35;97327.81;;;7.36;83.91
12973;BME280;6551;51.056;9.466;2023-12-20T10:43:04;97318.06;;;7.24;83.62
12973;BME280;6551;51.056;9.466;2023-12-20T10:45:30;97320.50;;;7.25;83.94
12973;BME280;6551;51.056;9.466;2023-12-20T10:47:58;97302.53;;;7.47;83.87
12973;BME280;6551;51.056;9.466;2023-12-20T10:50:27;97304.78;;;7.37;84.19
12973;BME280;6551;51.056;9.466;2023-12-20T10:52:55;97307.03;;;7.33;84.56
12973;BME280;6551;51.056;9.466;2023-12-20T10:55:23;97315.56;;;7.42;83.96
12973;BME280;6551;51.056;9.466;2023-12-20T10:57:54;97322.28;;;7.51;84.03
12973;BME280;6551;51.056;9.466;2023-12-20T11:00:25;97320.69;;;7.43;83.85
12973;BME280;6551;51.056;9.466;2023-12-20T11:02:51;97311.91;;;7.43;83.59
12973;BME280;6551;51.056;9.466;2023-12-20T11:05:36;97307.22;;;7.51;84.30
12973;BME280;6551;51.056;9.466;2023-12-20T11:08:19;97310.91;;;7.37;84.54
12973;BME280;6551;51.056;9.466;2023-12-20T11:10:59;97301.13;;;7.38;84.68
12973;BME280;6551;51.056;9.466;2023-12-20T11:13:36;97299.50;;;7.37;85.47
12973;BME280;6551;51.056;9.466;2023-12-20T11:16:04;97291.56;;;7.30;85.51
12973;BME280;6551;51.056;9.466;2023-12-20T11:18:30;97274.69;;;7.12;85.94
12973;BME280;6551;51.056;9.466;2023-12-20T11:21:01;97274.28;;;7.15;86.34
12973;BME280;6551;51.056;9.466;2023-12-20T11:23:30;97284.25;;;7.26;86.29
12973;BME280;6551;51.056;9.466;2023-12-20T11:25:57;97276.28;;;7.32;85.99
12973;BME280;6551;51.056;9.466;2023-12-20T11:28:26;97295.66;;;7.33;86.03
12973;BME280;6551;51.056;9.466;2023-12-20T11:30:54;97278.31;;;7.30;86.07
12973;BME280;6551;51.056;9.466;2023-12-20T11:33:45;97294.66;;;7.27;86.64
12973;BME280;6551;51.056;9.466;2023-12-20T11:36:15;97287.91;;;7.31;86.42
12973;BME280;6551;51.056;9.466;2023-12-20T11:38:58;97297.91;;;7.29;87.25
12973;BME280;6551;51.056;9.466;2023-12-20T11:41:26;97297.47;;;7.19;87.08
12973;BME280;6551;51.056;9.466;2023-12-20T11:43:55;97277.72;;;7.28;87.16
12973;BME280;6551;51.056;9.466;2023-12-20T11:46:22;97290.16;;;7.15;87.18
12973;BME280;6551;51.056;9.466;2023-12-20T11:48:48;97269.41;;;7.18;87.63
12973;BME280;6551;51.056;9.466;2023-12-20T11:51:14;97277.34;;;7.18;87.16
12973;BME280;6551;51.056;9.466;2023-12-20T11:53:40;97265.16;;;7.11;87.27
12973;BME280;6551;51.056;9.466;2023-12-20T11:56:08;97272.88;;;7.05;88.10
12973;BME280;6551;51.056;9.466;2023-12-20T11:58:35;97260.44;;;7.06;88.05
12973;BME280;6551;51.056;9.466;2023-12-20T12:01:01;97252.31;;;7.01;88.46
12973;BME280;6551;51.056;9.466;2023-12-20T12:03:30;97248.25;;;6.98;87.86
12973;BME280;6551;51.056;9.466;2023-12-20T12:05:57;97252.13;;;6.96;88.39
12973;BME280;6551;51.056;9.466;2023-12-20T12:08:23;97253.56;;;7.05;87.86
12973;BME280;6551;51.056;9.466;2023-12-20T12:10:49;97258.03;;;6.98;87.74
12973;BME280;6551;51.056;9.466;2023-12-20T12:13:15;97260.88;;;7.03;88.03
12973;BME280;6551;51.056;9.466;2023-12-20T12:15:42;97249.44;;;7.02;87.91
12973;BME280;6551;51.056;9.466;2023-12-20T12:18:08;97236.22;;;7.02;87.84
12973;BME280;6551;51.056;9.466;2023-12-20T12:20:35;97233.97;;;7.06;88.56
12973;BME280;6551;51.056;9.466;2023-12-20T12:23:05;97230.13;;;7.02;88.00
12973;BME280;6551;51.056;9.466;2023-12-20T12:25:35;97231.34;;;7.06;88.56
12973;BME280;6551;51.056;9.466;2023-12-20T12:28:03;97207.69;;;7.18;87.81
12973;BME280;6551;51.056;9.466;2023-12-20T12:30:28;97232.31;;;7.25;87.40
12973;BME280;6551;51.056;9.466;2023-12-20T12:32:56;97220.28;;;7.35;86.85
12973;BME280;6551;51.056;9.466;2023-12-20T12:35:23;97200.91;;;7.35;86.41
12973;BME280;6551;51.056;9.466;2023-12-20T12:37:49;97212.34;;;7.29;86.33
12973;BME280;6551;51.056;9.466;2023-12-20T12:40:16;97188.91;;;7.26;86.26
12973;BME280;6551;51.056;9.466;2023-12-20T12:42:44;97205.41;;;7.34;86.37
12973;BME280;6551;51.056;9.466;2023-12-20T12:45:10;97204.16;;;7.43;86.59
12973;BME280;6551;51.056;9.466;2023-12-20T12:47:40;97198.75;;;7.19;87.24
12973;BME280;6551;51.056;9.466;2023-12-20T12:50:06;97179.56;;;7.30;86.66
12973;BME280;6551;51.056;9.466;2023-12-20T12:52:32;97185.69;;;7.24;86.36
12973;BME280;6551;51.056;9.466;2023-12-20T12:54:58;97178.16;;;7.27;86.37
12973;BME280;6551;51.056;9.466;2023-12-20T12:57:24;97161.22;;;7.28;86.54
12973;BME280;6551;51.056;9.466;2023-12-20T12:59:50;97155.75;;;7.17;86.72
12973;BME280;6551;51.056;9.466;2023-12-20T13:02:16;97153.16;;;6.97;86.89
12973;BME280;6551;51.056;9.466;2023-12-20T13:04:42;97169.28;;;6.95;87.56
12973;BME280;6551;51.056;9.466;2023-12-20T13:07:09;97174.31;;;7.10;87.53
12973;BME280;6551;51.056;9.466;2023-12-20T13:09:39;97166.97;;;7.12;87.47
12973;BME280;6551;51.056;9.466;2023-12-20T13:12:06;97170.06;;;7.02;87.53
12973;BME280;6551;51.056;9.466;2023-12-20T13:14:34;97166.56;;;7.08;86.88
12973;BME280;6551;51.056;9.466;2023-12-20T13:17:01;97165.16;;;7.06;87.12
12973;BME280;6551;51.056;9.466;2023-12-20T13:19:27;97163.50;;;7.12;87.04
12973;BME280;6551;51.056;9.466;2023-12-20T13:21:53;97149.94;;;6.95;87.25